Time;durP1;ratioP1;P1;durP2;ratioP2;P2;SDS_P1;SDS_P2;PMS_P1;PMS_P2;Temp;Humidity;BMP_temperature;BMP_pressure;BME280_temperature;BME280_humidity;BME280_pressure;Samples;Min_cycle;Max_cycle;Signal;HPM_P1;HPM_P2
2023/10/14 00:01:28;;;;;;;991.05;887.00;;;27.90;99.90;;;;;;5016247;28;20390;-71
2023/10/14 00:03:56;;;;;;;1006.72;899.72;;;28.00;99.90;;;;;;5016099;28;20018;-70
2023/10/14 00:06:23;;;;;;;996.53;891.33;;;28.00;99.90;;;;;;5015932;28;20541;-70
2023/10/14 00:11:17;;;;;;;977.22;875.85;;;28.10;99.90;;;;;;5015920;28;20494;-71
2023/10/14 00:13:48;;;;;;;999.47;896.50;;;28.20;99.90;;;;;;5015769;28;20029;-70
2023/10/14 00:18:55;;;;;;;1006.33;903.58;;;28.20;99.90;;;;;;5015657;28;20250;-71
2023/10/14 00:21:25;;;;;;;994.53;892.65;;;28.30;99.90;;;;;;5015475;28;20122;-71
2023/10/14 00:24:03;;;;;;;995.72;893.40;;;28.30;99.90;;;;;;5015411;28;20025;-71
2023/10/14 00:26:31;;;;;;;1017.13;913.33;;;28.40;99.90;;;;;;5014899;28;20050;-70
2023/10/14 00:31:49;;;;;;;958.58;860.97;;;28.50;99.90;;;;;;4935774;29;20043;-71
2023/10/14 00:34:17;;;;;;;935.67;841.22;;;28.50;99.90;;;;;;4935824;29;20624;-70
2023/10/14 00:36:44;;;;;;;914.65;823.15;;;28.60;99.90;;;;;;4919769;29;20461;-69
2023/10/14 00:39:12;;;;;;;926.17;831.58;;;28.70;99.90;;;;;;4935597;29;20111;-70
2023/10/14 00:41:50;;;;;;;913.30;821.30;;;28.70;99.90;;;;;;4935804;29;20039;-69
2023/10/14 00:44:19;;;;;;;920.28;827.67;;;28.80;99.90;;;;;;4935839;29;20027;-69
2023/10/14 00:46:48;;;;;;;874.10;786.67;;;28.90;99.90;;;;;;4935403;29;20452;-69
2023/10/14 00:49:18;;;;;;;902.97;812.78;;;28.90;99.90;;;;;;4935703;29;20035;-70
2023/10/14 00:51:49;;;;;;;875.80;788.10;;;28.90;99.90;;;;;;4935393;29;20040;-72
2023/10/14 00:59:54;;;;;;;900.22;812.10;;;29.10;99.90;;;;;;4897389;29;20056;-70
2023/10/14 01:02:29;;;;;;;939.60;846.80;;;29.20;99.90;;;;;;4933834;28;20046;-69
2023/10/14 01:04:57;;;;;;;948.58;851.40;;;29.30;99.90;;;;;;4973735;28;20027;-69
2023/10/14 01:07:24;;;;;;;951.83;857.08;;;29.30;99.90;;;;;;4973727;28;20027;-70
2023/10/14 01:09:52;;;;;;;990.20;892.13;;;29.40;99.90;;;;;;4973561;28;20530;-70
2023/10/14 01:12:31;;;;;;;1005.45;905.28;;;29.50;99.90;;;;;;4973770;28;20070;-69
2023/10/14 01:14:59;;;;;;;1110.32;998.00;;;29.60;99.90;;;;;;4973416;28;20117;-70
2023/10/14 01:17:29;;;;;;;1101.55;992.00;;;29.60;99.90;;;;;;4973541;28;20087;-69
2023/10/14 01:20:10;;;;;;;1116.78;999.90;;;29.70;99.90;;;;;;4973574;28;20031;-70
2023/10/14 01:22:38;;;;;;;888.38;801.45;;;29.70;99.90;;;;;;4973481;28;20558;-70
2023/10/14 01:25:11;;;;;;;907.20;818.90;;;29.70;99.90;;;;;;4973373;28;20062;-71
2023/10/14 01:27:38;;;;;;;1008.03;908.80;;;29.80;99.90;;;;;;4973306;28;20062;-69
2023/10/14 01:30:10;;;;;;;1037.55;934.38;;;29.80;99.90;;;;;;4973882;28;20027;-71
2023/10/14 01:35:13;;;;;;;977.25;881.60;;;30.00;99.90;;;;;;4973856;28;20027;-70
2023/10/14 01:37:44;;;;;;;1009.78;911.63;;;30.10;99.90;;;;;;4973682;28;20400;-71
2023/10/14 01:43:05;;;;;;;1021.85;921.40;;;30.20;99.90;;;;;;4916316;29;20047;-70
2023/10/14 01:45:48;;;;;;;1067.97;962.38;;;30.20;99.90;;;;;;4916237;29;20442;-70
2023/10/14 01:48:19;;;;;;;1037.85;936.38;;;30.10;99.90;;;;;;4916730;29;20082;-71
2023/10/14 01:50:50;;;;;;;1054.23;951.17;;;30.10;99.90;;;;;;4916932;29;20110;-70
2023/10/14 01:53:18;;;;;;;1061.50;957.42;;;30.10;99.90;;;;;;4916626;29;20048;-69
2023/10/14 01:55:47;;;;;;;1055.93;952.05;;;30.10;99.90;;;;;;4912956;29;20395;-70
2023/10/14 02:01:07;;;;;;;1266.45;999.90;;;30.10;99.90;;;;;;4971992;28;20074;-68
2023/10/14 02:03:41;;;;;;;1316.20;999.90;;;30.10;99.90;;;;;;4972861;28;20119;-68
2023/10/14 02:06:17;;;;;;;1354.35;999.90;;;30.20;99.90;;;;;;4973491;28;20483;-69
2023/10/14 02:08:46;;;;;;;1236.38;999.90;;;30.20;99.90;;;;;;4973080;28;20058;-69
2023/10/14 02:11:16;;;;;;;1156.82;999.90;;;30.20;99.90;;;;;;4972765;28;20037;-66
2023/10/14 02:13:43;;;;;;;1172.53;999.90;;;30.20;99.90;;;;;;4999325;28;20505;-69
2023/10/14 02:16:09;;;;;;;1057.85;955.30;;;30.30;99.90;;;;;;5033122;28;20128;-70
2023/10/14 02:18:37;;;;;;;1191.05;999.90;;;30.40;99.90;;;;;;5033204;28;20025;-68
2023/10/14 02:21:06;;;;;;;1203.75;999.90;;;30.40;99.90;;;;;;5033684;28;20562;-69
2023/10/14 02:23:49;;;;;;;1250.18;999.90;;;30.50;99.90;;;;;;5033452;28;20068;-68
2023/10/14 02:26:16;;;;;;;1238.40;999.90;;;30.60;99.90;;;;;;5027971;28;20471;-70
2023/10/14 02:28:46;;;;;;;1283.63;999.90;;;30.70;99.90;;;;;;5028969;28;20033;-67
2023/10/14 02:34:05;;;;;;;1407.95;999.90;;;30.90;99.90;;;;;;5033226;28;20028;-67
2023/10/14 02:36:48;;;;;;;1327.43;999.90;;;31.00;99.90;;;;;;5033098;28;20037;-68
2023/10/14 02:39:16;;;;;;;1229.82;999.90;;;31.00;99.90;;;;;;5032783;28;20025;-67
2023/10/14 02:44:28;;;;;;;1133.32;999.90;;;31.10;99.90;;;;;;5030315;28;20544;-65
2023/10/14 02:47:01;;;;;;;1127.72;999.90;;;31.20;99.90;;;;;;5032659;28;20061;-67
2023/10/14 02:49:27;;;;;;;1135.57;999.90;;;31.20;99.90;;;;;;5030167;28;20474;-65
2023/10/14 02:52:01;;;;;;;1117.53;999.90;;;31.30;99.90;;;;;;5035909;28;20025;-65
2023/10/14 02:54:27;;;;;;;1059.53;954.25;;;31.20;99.90;;;;;;5034518;28;20029;-65
2023/10/14 02:59:35;;;;;;;1361.63;999.90;;;31.40;99.90;;;;;;5033963;28;20025;-67
2023/10/14 03:02:27;;;;;;;1360.45;999.90;;;31.40;99.90;;;;;;5033861;28;20112;-65
2023/10/14 03:07:33;;;;;;;1367.72;999.90;;;31.40;99.90;;;;;;5034520;28;20048;-65
2023/10/14 03:10:19;;;;;;;1429.80;999.90;;;31.40;99.90;;;;;;5033508;28;20022;-66
2023/10/14 03:12:49;;;;;;;1258.03;999.90;;;31.40;99.90;;;;;;5034159;28;20104;-64
2023/10/14 03:15:19;;;;;;;1167.07;999.90;;;31.50;99.90;;;;;;5036306;28;20064;-66
2023/10/14 03:18:00;;;;;;;1180.90;999.90;;;31.50;99.90;;;;;;5036110;28;20026;-67
2023/10/14 03:23:00;;;;;;;1286.03;999.90;;;31.60;99.90;;;;;;5036841;28;20025;-67
2023/10/14 03:25:27;;;;;;;1351.38;999.90;;;31.70;99.90;;;;;;5035879;28;20033;-65
2023/10/14 03:28:19;;;;;;;1363.25;999.90;;;31.70;99.90;;;;;;5030741;28;20047;-70
2023/10/14 03:30:44;;;;;;;1343.18;999.90;;;31.80;99.90;;;;;;5030660;28;20483;-65
2023/10/14 03:33:19;;;;;;;1341.85;999.90;;;31.80;99.90;;;;;;5035899;28;20033;-65
2023/10/14 03:36:06;;;;;;;1343.28;999.90;;;32.00;99.90;;;;;;5031012;28;20030;-66
2023/10/14 03:41:18;;;;;;;1436.00;999.90;;;32.20;99.90;;;;;;5033076;28;20029;-67
2023/10/14 03:43:49;;;;;;;1363.63;999.90;;;32.30;99.90;;;;;;5035940;28;20017;-66
2023/10/14 03:49:06;;;;;;;1436.88;999.90;;;32.40;99.90;;;;;;5034418;28;20067;-66
2023/10/14 03:51:35;;;;;;;1337.07;999.90;;;32.60;99.90;;;;;;5035585;28;20025;-66
2023/10/14 03:54:08;;;;;;;1361.22;999.90;;;32.70;99.90;;;;;;5033223;28;20088;-64
2023/10/14 03:56:36;;;;;;;1519.72;999.90;;;32.80;99.90;;;;;;5033176;28;20117;-64
2023/10/14 03:59:03;;;;;;;1371.30;999.90;;;32.80;99.90;;;;;;5031729;28;20105;-64
2023/10/14 04:04:18;;;;;;;1367.85;999.90;;;32.90;99.90;;;;;;5033026;28;20021;-68
2023/10/14 04:06:55;;;;;;;1396.90;999.90;;;32.90;99.90;;;;;;5035257;28;20109;-67
2023/10/14 04:09:24;;;;;;;1382.55;999.90;;;32.90;99.90;;;;;;5034279;28;20021;-65
2023/10/14 04:11:54;;;;;;;1374.70;999.90;;;32.90;99.70;;;;;;5034765;28;20025;-65
2023/10/14 04:14:22;;;;;;;1445.40;999.90;;;32.90;98.90;;;;;;5030068;28;20114;-65
2023/10/14 04:17:00;;;;;;;1366.10;999.90;;;33.00;99.10;;;;;;5034352;28;20034;-65
2023/10/14 04:19:44;;;;;;;1375.82;999.90;;;33.10;98.50;;;;;;5034657;28;20087;-65
2023/10/14 04:28:18;;;;;;;1366.95;999.90;;;33.20;98.50;;;;;;4953855;29;20163;-67
2023/10/14 04:30:38;;;;;;;1495.50;999.90;;;33.20;98.40;;;;;;4952701;29;20022;-68
2023/10/14 04:33:17;;;;;;;1375.43;999.90;;;33.20;97.90;;;;;;4954172;29;20114;-69
2023/10/14 04:38:38;;;;;;;1360.68;999.90;;;33.30;97.30;;;;;;4952782;28;20103;-68
2023/10/14 04:41:12;;;;;;;1338.93;999.90;;;33.40;97.30;;;;;;4953849;29;20067;-68
2023/10/14 04:44:01;;;;;;;1366.90;999.90;;;33.50;97.30;;;;;;4952392;29;20027;-68
2023/10/14 04:49:16;;;;;;;1498.13;999.90;;;33.50;97.10;;;;;;4953814;29;20077;-68
2023/10/14 04:51:51;;;;;;;1371.13;999.90;;;33.40;97.20;;;;;;4953753;29;20032;-67
2023/10/14 04:54:19;;;;;;;1340.28;999.90;;;33.50;97.10;;;;;;4953858;29;20059;-65
2023/10/14 04:56:46;;;;;;;1291.20;999.90;;;33.50;97.10;;;;;;4953766;29;20039;-68
2023/10/14 04:59:13;;;;;;;1301.05;999.90;;;33.50;96.90;;;;;;4953483;29;20039;-68
2023/10/14 05:01:42;;;;;;;1268.13;999.90;;;33.50;97.00;;;;;;4952894;29;20031;-67
2023/10/14 05:04:08;;;;;;;1310.40;999.90;;;33.50;96.80;;;;;;4953780;29;20059;-66
2023/10/14 05:06:45;;;;;;;1373.05;999.90;;;33.50;96.60;;;;;;4953720;29;20049;-66
2023/10/14 05:09:25;;;;;;;1601.07;999.90;;;33.50;97.00;;;;;;4952163;28;20031;-67
2023/10/14 05:11:52;;;;;;;1300.97;999.90;;;33.40;96.90;;;;;;4953733;29;20525;-67
2023/10/14 05:14:25;;;;;;;1270.32;999.90;;;33.50;97.10;;;;;;4954758;28;20110;-67
2023/10/14 05:19:58;;;;;;;1371.18;999.90;;;33.60;97.00;;;;;;4953606;29;20044;-66
2023/10/14 05:22:25;;;;;;;1364.97;999.90;;;33.70;96.50;;;;;;4953080;29;20039;-70
2023/10/14 05:24:55;;;;;;;1397.90;999.90;;;33.60;96.90;;;;;;4953610;29;20035;-69
2023/10/14 05:27:35;;;;;;;1385.25;999.90;;;33.60;96.20;;;;;;4953816;29;20031;-69
2023/10/14 05:30:06;;;;;;;1371.82;999.90;;;33.60;96.20;;;;;;4975682;28;20518;-68
2023/10/14 05:32:36;;;;;;;1178.23;999.90;;;33.60;96.50;;;;;;5033506;28;20026;-67
2023/10/14 05:35:09;;;;;;;1164.93;999.90;;;33.70;96.50;;;;;;5033567;28;20030;-67
2023/10/14 05:37:36;;;;;;;1152.97;999.90;;;33.70;96.40;;;;;;5033559;28;20120;-68
2023/10/14 05:40:04;;;;;;;1169.00;999.90;;;33.80;96.70;;;;;;5025380;28;20116;-67
2023/10/14 05:42:30;;;;;;;1175.53;999.90;;;33.90;96.10;;;;;;5014212;28;20099;-67
2023/10/14 05:44:57;;;;;;;1181.18;999.90;;;34.00;95.70;;;;;;5025896;28;20030;-68
2023/10/14 05:47:27;;;;;;;1095.38;985.35;;;34.10;95.10;;;;;;5020811;28;20061;-68
2023/10/14 05:49:54;;;;;;;1090.68;981.65;;;34.00;95.10;;;;;;5018956;28;20600;-67
2023/10/14 05:52:24;;;;;;;1095.57;986.20;;;34.00;94.60;;;;;;5033675;28;20105;-65
2023/10/14 05:54:51;;;;;;;1106.20;996.25;;;34.10;94.60;;;;;;5030032;28;20029;-67
2023/10/14 05:57:18;;;;;;;1085.53;977.40;;;34.20;94.20;;;;;;5030249;28;20059;-66
2023/10/14 05:59:44;;;;;;;1086.82;977.78;;;34.30;94.10;;;;;;5033230;28;20029;-66
2023/10/14 06:02:14;;;;;;;1084.43;976.08;;;34.30;94.00;;;;;;5033308;28;20034;-67
2023/10/14 06:04:40;;;;;;;1028.38;926.00;;;34.30;94.10;;;;;;5033243;28;20024;-66
2023/10/14 06:07:09;;;;;;;1052.93;947.30;;;34.30;94.10;;;;;;5033641;28;20075;-65
2023/10/14 06:09:37;;;;;;;1046.68;941.92;;;34.30;94.10;;;;;;5033175;28;20022;-68
2023/10/14 06:12:06;;;;;;;1052.35;947.33;;;34.40;93.80;;;;;;5033150;28;20094;-66
2023/10/14 06:14:33;;;;;;;1048.45;943.72;;;34.50;93.70;;;;;;5033067;28;20034;-67
2023/10/14 06:17:00;;;;;;;1052.03;946.95;;;34.40;94.40;;;;;;5032770;28;20029;-68
2023/10/14 06:19:26;;;;;;;1072.22;965.28;;;34.40;93.80;;;;;;5026689;28;20155;-67
2023/10/14 06:21:55;;;;;;;1086.57;977.80;;;34.40;93.80;;;;;;5032339;28;20387;-65
2023/10/14 06:24:24;;;;;;;1072.75;965.22;;;34.40;93.50;;;;;;5032087;28;20482;-67
2023/10/14 06:26:58;;;;;;;1084.78;976.38;;;34.30;92.80;;;;;;5032458;28;20060;-63
2023/10/14 06:29:26;;;;;;;1110.43;999.50;;;34.30;94.00;;;;;;5029474;28;20021;-65
2023/10/14 06:31:52;;;;;;;1130.03;999.90;;;34.40;93.80;;;;;;5030132;28;20055;-66
2023/10/14 06:34:21;;;;;;;1132.45;999.90;;;34.60;92.80;;;;;;5031474;28;20030;-67
2023/10/14 06:36:47;;;;;;;1123.45;999.90;;;34.70;93.10;;;;;;5030696;28;20037;-67
2023/10/14 06:39:14;;;;;;;1143.10;999.90;;;34.70;92.80;;;;;;5030457;28;20487;-65
2023/10/14 06:41:43;;;;;;;1158.43;999.90;;;34.70;92.00;;;;;;5029292;28;20045;-67
2023/10/14 06:44:15;;;;;;;1094.50;984.90;;;34.70;92.60;;;;;;5031677;28;20425;-66
2023/10/14 06:46:46;;;;;;;1101.38;991.53;;;34.70;92.20;;;;;;5031738;28;20091;-67
2023/10/14 06:49:13;;;;;;;;;;;34.70;92.70;;;;;;5029960;28;20033;-66
2023/10/14 06:51:42;;;;;;;1038.97;935.53;;;34.70;91.90;;;;;;5030346;28;19936;-66
2023/10/14 06:54:09;;;;;;;957.53;862.38;;;34.70;91.90;;;;;;5031891;28;20458;-66
2023/10/14 06:56:37;;;;;;;923.58;832.67;;;34.70;92.20;;;;;;5032136;28;20053;-66
2023/10/14 06:59:05;;;;;;;931.15;839.85;;;34.70;92.20;;;;;;5031916;28;20026;-66
2023/10/14 07:01:33;;;;;;;898.67;810.67;;;34.70;92.00;;;;;;5032091;28;20033;-66
2023/10/14 07:04:00;;;;;;;943.38;850.58;;;34.80;92.10;;;;;;5030520;28;20505;-66
2023/10/14 07:06:27;;;;;;;1059.53;953.67;;;34.80;92.40;;;;;;5031606;28;20022;-67
2023/10/14 07:08:54;;;;;;;1403.32;999.90;;;34.80;92.20;;;;;;5029297;28;20481;-66
2023/10/14 07:11:21;;;;;;;1591.60;999.90;;;34.70;91.80;;;;;;5031617;28;20120;-66
2023/10/14 07:13:47;;;;;;;1547.75;999.90;;;34.80;92.10;;;;;;5031470;28;20029;-69
2023/10/14 07:16:14;;;;;;;1438.65;999.90;;;34.80;92.10;;;;;;5031876;28;20032;-66
2023/10/14 07:18:40;;;;;;;1331.10;999.90;;;34.80;92.20;;;;;;5031527;28;20049;-66
2023/10/14 07:21:12;;;;;;;1340.43;999.90;;;34.90;92.30;;;;;;5029595;28;20029;-67
2023/10/14 07:23:39;;;;;;;1364.32;999.90;;;34.90;91.60;;;;;;5028084;28;20034;-65
2023/10/14 07:26:11;;;;;;;1384.35;999.90;;;34.90;92.00;;;;;;5029560;28;20026;-67
2023/10/14 07:28:42;;;;;;;;;;;34.90;91.00;;;;;;5030789;28;20084;-64
2023/10/14 07:31:10;;;;;;;1370.25;999.90;;;35.00;91.30;;;;;;5031433;28;20004;-66
2023/10/14 07:33:38;;;;;;;1393.10;999.90;;;34.90;91.10;;;;;;5031568;28;20025;-65
2023/10/14 07:36:06;;;;;;;1275.45;999.90;;;35.00;91.20;;;;;;5031130;28;20030;-64
2023/10/14 07:38:35;;;;;;;1329.13;999.90;;;35.00;90.40;;;;;;5030120;28;20382;-67
2023/10/14 07:41:03;;;;;;;1348.82;999.90;;;34.90;91.00;;;;;;5033109;28;20025;-72
2023/10/14 07:43:29;;;;;;;1312.97;999.90;;;34.90;90.70;;;;;;5034687;28;20017;-68
2023/10/14 07:45:58;;;;;;;1283.30;999.90;;;35.00;90.80;;;;;;5034397;28;20038;-65
2023/10/14 07:48:25;;;;;;;1328.53;999.90;;;34.90;90.90;;;;;;5029211;28;20029;-65
2023/10/14 07:50:56;;;;;;;1309.38;999.90;;;35.00;90.90;;;;;;5033760;28;20034;-65
2023/10/14 07:53:23;;;;;;;1298.10;999.90;;;35.00;91.20;;;;;;5035086;28;20100;-67
2023/10/14 07:55:52;;;;;;;1308.65;999.90;;;34.90;91.40;;;;;;5035079;28;20386;-66
2023/10/14 07:58:23;;;;;;;1220.68;999.90;;;34.90;90.00;;;;;;5035060;28;20474;-67
2023/10/14 08:00:51;;;;;;;1308.60;999.90;;;35.00;89.40;;;;;;5034916;28;20053;-68
2023/10/14 08:03:19;;;;;;;1281.65;999.90;;;35.10;88.70;;;;;;5033652;28;20037;-66
2023/10/14 08:05:53;;;;;;;1266.65;999.90;;;35.20;88.30;;;;;;5033822;28;20040;-67
2023/10/14 08:08:21;;;;;;;1261.18;999.90;;;35.20;86.60;;;;;;5034343;28;20022;-67
2023/10/14 08:10:50;;;;;;;1317.05;999.90;;;35.20;87.60;;;;;;5033527;28;20124;-68
2023/10/14 08:13:21;;;;;;;1294.20;999.90;;;35.20;86.00;;;;;;5034458;28;20025;-68
2023/10/14 08:15:50;;;;;;;1289.28;999.90;;;35.20;86.90;;;;;;5034920;28;20116;-67
2023/10/14 08:18:23;;;;;;;1259.55;999.90;;;35.20;87.00;;;;;;5034945;28;20033;-68
2023/10/14 08:20:53;;;;;;;1174.88;999.90;;;35.20;87.10;;;;;;5034794;28;20483;-67
2023/10/14 08:23:28;;;;;;;1242.13;999.90;;;35.10;87.60;;;;;;5034708;28;20034;-68
2023/10/14 08:25:56;;;;;;;1262.03;999.90;;;35.10;85.10;;;;;;5034848;28;20080;-66
2023/10/14 08:28:24;;;;;;;1298.38;999.90;;;35.00;84.10;;;;;;5023948;28;20080;-66
2023/10/14 08:30:51;;;;;;;1327.55;999.90;;;35.00;83.80;;;;;;5018176;28;20153;-67
2023/10/14 08:33:19;;;;;;;1279.82;999.90;;;34.90;84.20;;;;;;5035116;28;20055;-67
2023/10/14 08:35:48;;;;;;;1310.80;999.90;;;35.00;85.60;;;;;;5034946;28;20027;-68
2023/10/14 08:38:19;;;;;;;1106.90;994.63;;;35.00;84.80;;;;;;5034878;28;20471;-68
2023/10/14 08:40:49;;;;;;;1094.30;983.88;;;35.00;84.80;;;;;;5035002;28;20470;-69
2023/10/14 08:43:26;;;;;;;1085.95;975.88;;;35.00;84.80;;;;;;5034748;28;20116;-67
2023/10/14 08:45:54;;;;;;;1119.75;999.90;;;34.90;86.40;;;;;;5021937;28;20490;-68
2023/10/14 08:48:24;;;;;;;823.67;741.92;;;34.90;85.80;;;;;;5014666;28;20483;-66
2023/10/14 08:50:55;;;;;;;821.60;738.97;;;34.90;85.70;;;;;;5014927;28;20018;-67
2023/10/14 08:53:22;;;;;;;772.05;694.22;;;34.90;85.70;;;;;;5014881;28;20463;-66
2023/10/14 08:55:52;;;;;;;818.22;736.53;;;34.90;86.80;;;;;;5015229;28;20049;-66
2023/10/14 08:58:22;;;;;;;758.53;682.60;;;34.90;86.40;;;;;;5014895;28;20026;-67
2023/10/14 09:00:50;;;;;;;883.10;794.97;;;34.90;86.40;;;;;;5014879;28;20505;-65
2023/10/14 09:03:17;;;;;;;852.55;767.53;;;34.80;86.80;;;;;;5014513;28;20034;-66
2023/10/14 09:05:44;;;;;;;771.50;694.35;;;34.90;86.10;;;;;;5014587;28;20438;-65
2023/10/14 09:08:14;;;;;;;752.10;676.35;;;34.90;84.70;;;;;;5014561;28;20037;-65
2023/10/14 09:10:42;;;;;;;761.83;685.67;;;34.70;84.90;;;;;;5014406;28;20034;-65
2023/10/14 09:13:10;;;;;;;798.10;718.95;;;34.70;85.70;;;;;;5014458;28;20040;-65
2023/10/14 09:15:40;;;;;;;714.67;641.88;;;34.70;87.10;;;;;;5013149;28;20022;-65
2023/10/14 09:18:21;;;;;;;702.28;630.95;;;34.70;86.70;;;;;;5013024;28;20104;-65
2023/10/14 09:20:54;;;;;;;732.08;658.28;;;34.60;86.50;;;;;;5013646;28;20057;-65
2023/10/14 09:23:24;;;;;;;717.25;644.28;;;34.70;87.10;;;;;;5013424;28;20034;-65
2023/10/14 09:25:56;;;;;;;721.35;648.42;;;34.70;87.10;;;;;;5013760;28;20418;-65
2023/10/14 09:28:26;;;;;;;741.20;666.08;;;34.60;87.70;;;;;;5013926;28;20026;-64
2023/10/14 09:30:54;;;;;;;650.53;583.20;;;34.60;87.30;;;;;;5013982;28;20033;-65
2023/10/14 09:33:22;;;;;;;660.00;591.67;;;34.50;85.80;;;;;;5014153;28;20033;-65
2023/10/14 09:35:50;;;;;;;647.38;580.17;;;34.60;87.80;;;;;;5014036;28;20490;-66
2023/10/14 09:38:22;;;;;;;661.85;593.72;;;34.50;86.80;;;;;;5013902;28;20172;-65
2023/10/14 09:40:53;;;;;;;650.13;583.38;;;34.50;86.10;;;;;;5014214;28;20038;-65
2023/10/14 09:43:23;;;;;;;660.38;592.30;;;34.40;87.30;;;;;;5013747;28;20030;-65
2023/10/14 09:45:58;;;;;;;655.20;587.33;;;34.40;88.30;;;;;;5013695;28;20053;-65
2023/10/14 09:48:27;;;;;;;642.47;575.55;;;34.30;88.00;;;;;;5013829;28;20050;-65
2023/10/14 09:50:55;;;;;;;647.28;579.88;;;34.40;87.70;;;;;;5013674;28;20060;-65
2023/10/14 09:53:26;;;;;;;665.58;596.92;;;34.30;87.00;;;;;;5013820;28;20545;-65
2023/10/14 09:56:10;;;;;;;645.60;577.88;;;34.30;88.20;;;;;;5013924;28;20068;-64
2023/10/14 09:58:41;;;;;;;644.58;577.97;;;34.30;87.60;;;;;;5013716;28;20471;-64
2023/10/14 10:01:18;;;;;;;652.17;584.17;;;34.20;87.90;;;;;;5012809;28;20105;-64
2023/10/14 10:03:57;;;;;;;645.10;577.90;;;34.20;87.30;;;;;;5013565;28;20026;-65
2023/10/14 10:06:27;;;;;;;633.97;568.22;;;34.10;88.20;;;;;;5013336;28;20022;-65
2023/10/14 10:09:00;;;;;;;635.20;569.75;;;34.10;88.00;;;;;;5013620;28;20060;-65
2023/10/14 10:11:29;;;;;;;651.70;584.50;;;34.10;88.70;;;;;;5013665;28;20038;-65
2023/10/14 10:13:59;;;;;;;662.83;594.65;;;34.00;88.40;;;;;;5013567;28;20116;-65
2023/10/14 10:16:32;;;;;;;688.30;618.25;;;33.90;88.50;;;;;;5013399;28;20125;-64
2023/10/14 10:19:01;;;;;;;729.67;656.30;;;33.80;88.90;;;;;;5013362;28;20026;-65
2023/10/14 10:21:32;;;;;;;675.78;606.47;;;33.80;90.00;;;;;;5013266;28;20038;-65
2023/10/14 10:24:23;;;;;;;650.67;583.67;;;33.80;90.10;;;;;;5013360;28;20049;-64
2023/10/14 10:27:10;;;;;;;675.40;604.35;;;33.70;90.00;;;;;;5013259;28;20101;-65
2023/10/14 10:29:50;;;;;;;674.03;604.22;;;33.70;90.10;;;;;;5013111;28;20509;-65
2023/10/14 10:32:20;;;;;;;652.13;584.47;;;33.60;89.20;;;;;;5013275;28;20160;-64
2023/10/14 10:35:06;;;;;;;675.00;604.92;;;33.60;89.80;;;;;;5013185;28;20025;-64
2023/10/14 10:37:37;;;;;;;655.58;587.20;;;33.60;90.00;;;;;;5013302;28;20026;-65
2023/10/14 10:40:10;;;;;;;634.13;568.35;;;33.60;90.20;;;;;;5012992;28;20034;-64
2023/10/14 10:42:44;;;;;;;643.25;575.75;;;33.60;90.40;;;;;;5013393;28;20037;-64
2023/10/14 10:45:21;;;;;;;655.40;587.35;;;33.50;90.30;;;;;;5012986;28;20546;-64
2023/10/14 10:47:56;;;;;;;623.88;559.00;;;33.50;90.50;;;;;;5012150;28;20033;-65
2023/10/14 10:50:26;;;;;;;649.15;581.65;;;33.40;90.20;;;;;;5013024;28;20107;-65
2023/10/14 10:53:13;;;;;;;640.95;573.95;;;33.30;90.40;;;;;;5012937;28;20029;-64
2023/10/14 10:55:41;;;;;;;622.53;556.53;;;33.30;91.10;;;;;;5013127;28;20096;-65
2023/10/14 10:58:12;;;;;;;617.72;552.63;;;33.30;90.70;;;;;;5012939;28;20034;-65
2023/10/14 11:00:45;;;;;;;619.05;554.90;;;33.20;90.90;;;;;;5013321;28;20566;-65
2023/10/14 11:03:15;;;;;;;625.88;561.13;;;33.10;91.30;;;;;;5012801;28;20036;-65
2023/10/14 11:05:43;;;;;;;625.13;560.10;;;33.10;91.50;;;;;;5013063;28;20101;-64
2023/10/14 11:08:10;;;;;;;611.63;548.35;;;33.10;91.60;;;;;;5013127;28;20080;-64
2023/10/14 11:10:38;;;;;;;596.38;534.33;;;33.10;91.50;;;;;;5013439;28;20022;-64
2023/10/14 11:13:08;;;;;;;616.75;552.20;;;33.10;92.30;;;;;;5016664;28;20030;-64
2023/10/14 11:15:37;;;;;;;601.20;538.15;;;33.00;92.00;;;;;;5016601;28;20108;-65
2023/10/14 11:18:05;;;;;;;597.20;534.92;;;33.00;92.10;;;;;;5016239;28;20100;-65
2023/10/14 11:20:35;;;;;;;613.28;550.55;;;33.00;92.10;;;;;;5016779;28;20368;-65
2023/10/14 11:23:04;;;;;;;593.45;531.60;;;32.90;91.80;;;;;;5016480;28;20034;-65
2023/10/14 11:25:36;;;;;;;617.42;553.65;;;32.80;91.90;;;;;;5016475;28;20479;-64
2023/10/14 11:28:05;;;;;;;627.38;563.35;;;32.80;92.10;;;;;;5016447;28;20026;-64
2023/10/14 11:30:32;;;;;;;607.22;544.80;;;32.80;92.50;;;;;;5016263;28;20113;-65
2023/10/14 11:32:59;;;;;;;601.53;539.70;;;32.80;92.50;;;;;;5016166;28;20050;-64
2023/10/14 11:35:28;;;;;;;593.63;532.22;;;32.70;92.80;;;;;;5016209;28;20034;-65
2023/10/14 11:38:00;;;;;;;598.15;536.90;;;32.70;92.70;;;;;;5016197;28;20079;-64
2023/10/14 11:40:37;;;;;;;633.92;569.42;;;32.60;92.90;;;;;;5016452;28;20173;-65
2023/10/14 11:43:07;;;;;;;640.97;574.78;;;32.50;93.50;;;;;;5030767;28;20167;-67
2023/10/14 11:45:36;;;;;;;635.75;570.35;;;32.60;94.10;;;;;;5035448;28;20462;-64
2023/10/14 11:48:03;;;;;;;633.67;569.40;;;32.50;94.10;;;;;;5035816;28;20123;-63
2023/10/14 11:50:30;;;;;;;623.63;559.70;;;32.50;94.20;;;;;;5035985;28;20021;-62
2023/10/14 11:52:57;;;;;;;655.03;588.50;;;32.50;94.00;;;;;;5035124;28;20046;-63
2023/10/14 11:55:26;;;;;;;701.97;630.72;;;32.40;94.30;;;;;;5035328;28;20052;-62
2023/10/14 11:57:55;;;;;;;674.88;606.40;;;32.40;94.20;;;;;;5034670;28;20044;-64
2023/10/14 12:00:23;;;;;;;659.70;593.35;;;32.30;94.40;;;;;;5034742;28;20040;-64
2023/10/14 12:02:50;;;;;;;676.05;607.30;;;32.30;94.90;;;;;;5034694;28;20029;-63
2023/10/14 12:05:17;;;;;;;665.38;598.55;;;32.20;94.70;;;;;;5034589;28;20056;-65
2023/10/14 12:07:44;;;;;;;620.90;557.50;;;32.20;95.60;;;;;;5034780;28;20033;-64
2023/10/14 12:10:11;;;;;;;591.80;531.00;;;32.20;94.90;;;;;;5034542;28;20022;-64
2023/10/14 12:12:38;;;;;;;568.88;509.98;;;32.10;94.80;;;;;;5034764;28;20025;-65
2023/10/14 12:15:06;;;;;;;589.38;529.53;;;32.10;94.70;;;;;;5034904;28;20033;-64
2023/10/14 12:17:35;;;;;;;545.60;489.05;;;32.10;94.40;;;;;;5027373;28;20069;-65
2023/10/14 12:20:06;;;;;;;553.63;497.00;;;32.10;95.20;;;;;;5025311;28;20040;-65
2023/10/14 12:22:33;;;;;;;560.83;502.15;;;32.10;95.10;;;;;;5021458;28;20037;-64
2023/10/14 12:25:02;;;;;;;531.50;475.88;;;32.00;95.20;;;;;;5023830;28;20513;-66
2023/10/14 12:27:29;;;;;;;551.08;494.42;;;32.00;95.80;;;;;;5028201;28;20053;-66
2023/10/14 12:30:00;;;;;;;540.55;484.58;;;32.00;95.70;;;;;;5034023;28;20017;-67
2023/10/14 12:32:30;;;;;;;539.65;483.60;;;31.90;96.00;;;;;;5031069;28;20025;-68
2023/10/14 12:35:04;;;;;;;557.67;500.20;;;31.90;96.60;;;;;;5032921;28;20021;-67
2023/10/14 12:37:31;;;;;;;558.65;500.38;;;31.90;96.70;;;;;;5032018;28;20115;-67
2023/10/14 12:40:11;;;;;;;562.78;504.20;;;31.90;97.00;;;;;;5031701;28;20569;-67
2023/10/14 12:42:46;;;;;;;575.40;514.83;;;31.90;97.10;;;;;;5032269;28;20498;-66
2023/10/14 12:45:22;;;;;;;582.17;520.85;;;31.80;97.50;;;;;;5031738;28;20104;-67
2023/10/14 12:47:50;;;;;;;563.90;504.50;;;31.70;97.60;;;;;;5028486;28;20048;-67
2023/10/14 12:50:19;;;;;;;573.75;512.88;;;31.70;98.00;;;;;;5033301;28;20036;-65
2023/10/14 12:52:59;;;;;;;575.53;514.30;;;31.80;98.20;;;;;;5031900;28;20156;-71
2023/10/14 12:55:27;;;;;;;571.63;510.48;;;31.70;98.20;;;;;;5031214;28;20021;-68
2023/10/14 12:57:55;;;;;;;588.95;526.33;;;31.70;98.60;;;;;;5030916;28;20025;-67
2023/10/14 13:00:30;;;;;;;610.83;546.08;;;31.80;99.00;;;;;;5032389;28;20034;-66
2023/10/14 13:02:58;;;;;;;607.92;543.53;;;31.70;99.10;;;;;;5033707;28;20037;-69
2023/10/14 13:05:26;;;;;;;595.90;532.05;;;31.60;99.50;;;;;;5031177;28;20049;-68
2023/10/14 13:07:54;;;;;;;602.60;538.00;;;31.60;99.60;;;;;;5033425;28;20414;-66
2023/10/14 13:10:23;;;;;;;605.92;540.78;;;31.60;99.60;;;;;;5033404;28;20021;-67
2023/10/14 13:12:51;;;;;;;628.25;561.78;;;31.60;99.90;;;;;;5032538;28;20025;-66
2023/10/14 13:15:25;;;;;;;628.55;561.53;;;31.60;99.90;;;;;;5031971;28;20041;-67
2023/10/14 13:17:57;;;;;;;598.33;534.72;;;31.60;99.90;;;;;;5032783;28;20037;-70